createdAt,value
2024-01-06T00:01:36.009Z,17.97
2024-01-06T00:03:39.491Z,23.63
2024-01-06T00:05:43.800Z,20.03
2024-01-06T00:07:48.546Z,23.33
2024-01-06T00:09:52.662Z,19.57
2024-01-06T00:11:59.408Z,20.63
2024-01-06T00:14:06.165Z,22.63
2024-01-06T00:16:13.848Z,19.27
2024-01-06T00:18:24.924Z,20.10
2024-01-06T00:20:29.915Z,18.53
2024-01-06T00:22:36.517Z,20.93
2024-01-06T00:24:47.026Z,17.93
2024-01-06T00:26:51.891Z,22.40
2024-01-06T00:28:59.047Z,22.17
2024-01-06T00:31:04.505Z,16.60
2024-01-06T00:33:09.436Z,20.37
2024-01-06T00:35:14.181Z,19.10
2024-01-06T00:37:16.735Z,15.90
2024-01-06T00:39:19.780Z,15.20
2024-01-06T00:41:23.219Z,17.30
2024-01-06T00:43:28.604Z,13.90
2024-01-06T00:45:34.886Z,15.87
2024-01-06T00:47:39.297Z,15.80
2024-01-06T00:49:44.537Z,22.67
2024-01-06T00:51:55.463Z,16.83
2024-01-06T00:53:59.396Z,15.13
2024-01-06T00:56:05.059Z,13.77
2024-01-06T00:58:10.911Z,20.40
2024-01-06T01:00:15.594Z,17.60
2024-01-06T01:02:18.096Z,15.20
2024-01-06T01:04:20.657Z,17.87
2024-01-06T01:06:25.041Z,15.43
2024-01-06T01:08:30.570Z,17.47
2024-01-06T01:10:33.642Z,16.97
2024-01-06T01:12:38.045Z,14.83
2024-01-06T01:14:42.952Z,18.00
2024-01-06T01:16:48.925Z,23.23
2024-01-06T01:18:51.952Z,15.97
2024-01-06T01:20:57.198Z,17.87
2024-01-06T01:23:02.320Z,15.67
2024-01-06T01:25:09.947Z,17.87
2024-01-06T01:27:15.123Z,15.40
2024-01-06T01:29:23.421Z,17.63
2024-01-06T01:31:28.075Z,16.57
2024-01-06T01:33:34.041Z,13.77
2024-01-06T01:35:36.999Z,13.13
2024-01-06T01:37:41.435Z,18.23
2024-01-06T01:39:49.674Z,13.17
2024-01-06T01:41:53.145Z,15.07
2024-01-06T01:43:59.501Z,15.07
2024-01-06T01:46:02.763Z,17.17
2024-01-06T01:48:05.396Z,15.87
2024-01-06T01:50:09.584Z,20.77
2024-01-06T01:52:11.745Z,13.97
2024-01-06T01:54:14.618Z,16.40
2024-01-06T01:56:17.765Z,14.83
2024-01-06T01:58:20.392Z,12.43
2024-01-06T02:00:24.165Z,15.40
2024-01-06T02:02:29.789Z,12.60
2024-01-06T02:04:32.059Z,16.87
2024-01-06T02:06:35.072Z,11.17
2024-01-06T02:08:37.400Z,14.10
2024-01-06T02:10:40.225Z,13.87
2024-01-06T02:12:42.423Z,11.90
2024-01-06T02:14:44.992Z,13.60
2024-01-06T02:16:47.055Z,13.60
2024-01-06T02:18:50.890Z,12.30
2024-01-06T02:20:55.770Z,13.67
2024-01-06T02:23:00.715Z,13.47
2024-01-06T02:25:03.456Z,15.40
2024-01-06T02:27:05.973Z,12.87
2024-01-06T02:29:08.089Z,16.03
2024-01-06T02:31:10.690Z,14.93
2024-01-06T02:33:13.131Z,17.63
2024-01-06T02:35:15.644Z,14.03
2024-01-06T02:37:17.769Z,18.97
2024-01-06T02:39:20.331Z,13.73
2024-01-06T02:41:22.531Z,17.13
2024-01-06T02:43:25.102Z,13.60
2024-01-06T02:45:27.244Z,12.03
2024-01-06T02:47:30.178Z,16.07
2024-01-06T02:49:32.521Z,15.70
2024-01-06T02:51:35.122Z,15.43
2024-01-06T02:53:37.337Z,11.97
2024-01-06T02:55:40.597Z,13.63
2024-01-06T02:57:42.813Z,14.90
2024-01-06T02:59:45.398Z,12.77
2024-01-06T03:01:47.689Z,16.53
2024-01-06T03:03:50.376Z,14.40
2024-01-06T03:05:52.699Z,11.83
2024-01-06T03:07:55.168Z,12.70
2024-01-06T03:09:57.348Z,10.60
2024-01-06T03:11:59.864Z,12.47
2024-01-06T03:14:01.963Z,11.20
2024-01-06T03:16:07.314Z,12.13
2024-01-06T03:18:10.133Z,11.90
2024-01-06T03:20:12.847Z,12.60
2024-01-06T03:22:15.034Z,16.30
2024-01-06T03:24:17.521Z,14.53
2024-01-06T03:26:19.800Z,15.03
2024-01-06T03:28:22.254Z,15.93
2024-01-06T03:30:24.411Z,12.90
2024-01-06T03:32:27.023Z,12.03
2024-01-06T03:34:29.226Z,16.13
2024-01-06T03:36:31.823Z,13.60
2024-01-06T03:38:34.930Z,12.47
2024-01-06T03:40:37.319Z,12.70
2024-01-06T03:42:39.541Z,12.70
2024-01-06T03:44:42.095Z,12.93
2024-01-06T03:46:44.363Z,11.70
2024-01-06T03:48:47.316Z,12.37
2024-01-06T03:50:49.527Z,11.67
2024-01-06T03:52:52.233Z,13.57
2024-01-06T03:54:54.542Z,14.23
2024-01-06T03:56:57.094Z,11.87
2024-01-06T03:58:59.273Z,11.40
2024-01-06T04:01:02.515Z,16.73
2024-01-06T04:03:05.698Z,12.83
2024-01-06T04:05:08.385Z,13.00
2024-01-06T04:07:10.627Z,13.63
2024-01-06T04:09:14.585Z,13.60
2024-01-06T04:11:17.959Z,14.00
2024-01-06T04:13:20.658Z,12.53
2024-01-06T04:15:22.799Z,14.13
2024-01-06T04:17:27.361Z,14.60
2024-01-06T04:19:29.629Z,21.17
2024-01-06T04:21:32.188Z,16.47
2024-01-06T04:23:34.336Z,12.90
2024-01-06T04:25:36.885Z,15.77
2024-01-06T04:27:39.151Z,15.83
2024-01-06T04:29:41.977Z,15.03
2024-01-06T04:31:44.226Z,17.87
2024-01-06T04:33:46.879Z,16.30
2024-01-06T04:35:49.193Z,13.33
2024-01-06T04:37:51.738Z,17.00
2024-01-06T04:39:54.147Z,11.77
2024-01-06T04:41:56.731Z,14.23
2024-01-06T04:43:58.841Z,12.30
2024-01-06T04:46:01.306Z,12.47
2024-01-06T04:48:04.426Z,15.53
2024-01-06T04:50:07.375Z,14.17
2024-01-06T04:52:09.569Z,15.63
2024-01-06T04:54:12.087Z,12.90
2024-01-06T04:56:14.471Z,14.27
2024-01-06T04:58:16.872Z,13.70
2024-01-06T05:00:19.128Z,15.73
2024-01-06T05:02:21.735Z,11.33
2024-01-06T05:04:24.053Z,11.60
2024-01-06T05:06:26.727Z,14.87
2024-01-06T05:08:32.145Z,15.80
2024-01-06T05:10:34.774Z,17.20
2024-01-06T05:12:37.029Z,15.90
2024-01-06T05:14:39.564Z,14.77
2024-01-06T05:16:41.772Z,13.90
2024-01-06T05:18:44.283Z,12.37
2024-01-06T05:20:47.141Z,12.93
2024-01-06T05:22:49.631Z,13.47
2024-01-06T05:24:54.549Z,16.50
2024-01-06T05:26:57.163Z,11.03
2024-01-06T05:28:59.410Z,17.03
2024-01-06T05:31:02.218Z,18.17
2024-01-06T05:33:05.342Z,12.93
2024-01-06T05:35:08.739Z,13.47
2024-01-06T05:37:10.987Z,16.83
2024-01-06T05:39:13.600Z,19.10
2024-01-06T05:41:15.814Z,16.40
2024-01-06T05:43:18.260Z,16.57
2024-01-06T05:45:20.521Z,17.07
2024-01-06T05:47:23.134Z,13.20
2024-01-06T05:49:25.851Z,15.03
2024-01-06T05:51:28.427Z,12.13
2024-01-06T05:53:30.594Z,12.80
2024-01-06T05:55:33.202Z,14.03
2024-01-06T05:57:35.399Z,13.23
2024-01-06T05:59:37.981Z,16.10
2024-01-06T06:01:40.205Z,15.93
2024-01-06T06:03:42.764Z,11.23
2024-01-06T06:05:46.242Z,15.10
2024-01-06T06:07:49.122Z,16.53
2024-01-06T06:09:51.414Z,14.70
2024-01-06T06:11:53.826Z,15.03
2024-01-06T06:13:56.036Z,12.80
2024-01-06T06:15:59.171Z,13.00
2024-01-06T06:18:01.881Z,17.40
2024-01-06T06:20:05.054Z,14.57
2024-01-06T06:22:07.279Z,15.67
2024-01-06T06:24:09.866Z,11.27
2024-01-06T06:26:13.126Z,12.17
2024-01-06T06:28:15.835Z,18.57
2024-01-06T06:30:18.555Z,14.57
2024-01-06T06:32:21.147Z,12.83
2024-01-06T06:34:23.679Z,12.13
2024-01-06T06:36:26.542Z,15.73
2024-01-06T06:38:28.852Z,13.03
2024-01-06T06:40:31.387Z,11.50
2024-01-06T06:42:33.650Z,14.70
2024-01-06T06:44:36.146Z,11.97
2024-01-06T06:46:38.283Z,13.63
2024-01-06T06:48:41.619Z,14.37
2024-01-06T06:50:43.852Z,15.07
2024-01-06T06:52:46.733Z,12.87
2024-01-06T06:54:50.382Z,13.70
2024-01-06T06:56:52.873Z,13.90
2024-01-06T06:58:55.634Z,10.83
2024-01-06T07:00:58.133Z,14.10
2024-01-06T07:03:01.402Z,13.13
2024-01-06T07:05:05.905Z,13.03
2024-01-06T07:07:08.151Z,13.20
2024-01-06T07:09:10.735Z,8.60
2024-01-06T07:11:16.178Z,13.13
2024-01-06T07:13:18.693Z,14.70
2024-01-06T07:15:20.882Z,12.20
2024-01-06T07:17:23.300Z,14.13
2024-01-06T07:19:25.732Z,12.20
2024-01-06T07:21:28.195Z,13.37
2024-01-06T07:23:30.751Z,13.57
2024-01-06T07:25:33.279Z,11.10
2024-01-06T07:27:35.611Z,12.87
2024-01-06T07:29:38.772Z,11.50
2024-01-06T07:31:40.995Z,12.70
2024-01-06T07:33:43.991Z,10.03
2024-01-06T07:35:47.162Z,13.87
2024-01-06T07:37:49.657Z,13.23
2024-01-06T07:39:51.839Z,13.80
2024-01-06T07:41:54.458Z,11.50
2024-01-06T07:43:57.019Z,12.40
2024-01-06T07:45:59.534Z,12.70
2024-01-06T07:48:02.002Z,17.07
2024-01-06T07:50:06.384Z,14.00
2024-01-06T07:52:08.579Z,12.67
2024-01-06T07:54:11.253Z,13.47
2024-01-06T07:56:13.525Z,13.23
2024-01-06T07:58:17.025Z,12.90
2024-01-06T08:00:19.382Z,16.13
2024-01-06T08:02:21.849Z,11.50
2024-01-06T08:04:24.090Z,14.63
2024-01-06T08:06:27.754Z,13.00
2024-01-06T08:08:30.030Z,14.00
2024-01-06T08:10:32.591Z,14.67
2024-01-06T08:12:35.803Z,13.33
2024-01-06T08:14:38.787Z,13.27
2024-01-06T08:16:40.916Z,13.83
2024-01-06T08:18:43.459Z,16.20
2024-01-06T08:20:45.884Z,12.67
2024-01-06T08:22:48.380Z,15.17
2024-01-06T08:24:50.578Z,19.10
2024-01-06T08:26:53.050Z,17.57
2024-01-06T08:28:55.274Z,13.87
2024-01-06T08:30:57.869Z,16.33
2024-01-06T08:33:01.133Z,17.20
2024-01-06T08:35:04.984Z,14.47
2024-01-06T08:37:07.644Z,14.17
2024-01-06T08:39:10.143Z,12.23
2024-01-06T08:41:12.336Z,12.93
2024-01-06T08:43:15.312Z,13.87
2024-01-06T08:45:17.510Z,13.90
2024-01-06T08:47:20.249Z,14.07
2024-01-06T08:49:22.478Z,12.90
2024-01-06T08:51:25.576Z,14.17
2024-01-06T08:53:27.907Z,15.10
2024-01-06T08:55:30.370Z,17.10
2024-01-06T08:57:32.666Z,14.30
2024-01-06T08:59:35.158Z,18.77
2024-01-06T09:01:38.744Z,12.80
2024-01-06T09:03:41.367Z,14.43
2024-01-06T09:05:43.680Z,13.90
2024-01-06T09:07:54.501Z,19.37
2024-01-06T09:09:57.480Z,14.73
2024-01-06T09:12:00.358Z,18.23
2024-01-06T09:14:02.693Z,14.67
2024-01-06T09:16:05.666Z,15.10
2024-01-06T09:18:08.053Z,12.77
2024-01-06T09:20:11.019Z,12.40
2024-01-06T09:22:14.330Z,15.63
2024-01-06T09:24:16.892Z,17.33
2024-01-06T09:26:19.109Z,13.20
2024-01-06T09:28:24.783Z,13.97
2024-01-06T09:30:27.340Z,15.20
2024-01-06T09:32:29.940Z,13.53
2024-01-06T09:34:33.114Z,11.17
2024-01-06T09:36:36.998Z,10.57
2024-01-06T09:38:39.250Z,11.10
2024-01-06T09:40:45.742Z,12.13
2024-01-06T09:42:47.981Z,12.67
2024-01-06T09:44:50.819Z,15.33
2024-01-06T09:46:53.795Z,11.23
2024-01-06T09:48:58.698Z,11.83
2024-01-06T09:51:05.023Z,12.10
2024-01-06T09:53:09.978Z,13.03
2024-01-06T09:55:13.507Z,12.17
2024-01-06T09:57:18.642Z,11.87
2024-01-06T09:59:21.455Z,16.90
2024-01-06T10:01:25.680Z,11.63
2024-01-06T10:03:30.792Z,11.93
2024-01-06T10:05:36.889Z,12.70
2024-01-06T10:07:39.686Z,13.00
2024-01-06T10:09:43.847Z,13.97
2024-01-06T10:11:46.326Z,13.43
2024-01-06T10:13:53.508Z,18.93
2024-01-06T10:15:56.554Z,12.37
2024-01-06T10:18:00.471Z,13.73
2024-01-06T10:20:04.526Z,14.03
2024-01-06T10:22:08.364Z,14.50
2024-01-06T10:24:11.133Z,10.07
2024-01-06T10:26:16.712Z,12.53
2024-01-06T10:28:19.511Z,14.00
2024-01-06T10:30:22.243Z,13.87
2024-01-06T10:32:30.118Z,13.47
2024-01-06T10:34:33.809Z,14.27
2024-01-06T10:36:39.454Z,10.13
2024-01-06T10:38:45.375Z,12.20
2024-01-06T10:41:01.485Z,10.70
2024-01-06T10:43:05.171Z,11.13
2024-01-06T10:45:11.662Z,7.43
2024-01-06T10:47:16.300Z,10.87
2024-01-06T10:49:22.605Z,9.90
2024-01-06T10:51:28.302Z,9.53
2024-01-06T10:53:31.897Z,10.93
2024-01-06T10:55:35.233Z,11.50
2024-01-06T10:57:39.661Z,12.17
2024-01-06T10:59:42.884Z,13.07
2024-01-06T11:01:46.762Z,13.37
2024-01-06T11:03:52.953Z,13.03
2024-01-06T11:05:55.229Z,11.03
2024-01-06T11:08:02.043Z,10.53
2024-01-06T11:10:07.157Z,11.90
2024-01-06T11:12:09.774Z,11.03
2024-01-06T11:14:29.271Z,14.93
2024-01-06T11:18:42.468Z,11.17
2024-01-06T11:21:29.237Z,11.13
2024-01-06T11:23:31.483Z,11.43
2024-01-06T11:25:34.042Z,10.40
2024-01-06T11:27:37.498Z,11.80
2024-01-06T11:29:44.019Z,13.80
2024-01-06T11:32:40.425Z,14.80
2024-01-06T11:34:43.454Z,13.53
2024-01-06T11:36:47.366Z,9.60
2024-01-06T11:38:52.194Z,12.37
2024-01-06T11:40:54.437Z,14.10
2024-01-06T11:43:11.123Z,14.17
2024-01-06T11:45:14.893Z,10.70
2024-01-06T11:47:19.296Z,11.60
2024-01-06T11:49:22.788Z,9.60
2024-01-06T11:51:26.998Z,8.90
2024-01-06T11:53:29.936Z,10.30
2024-01-06T11:55:36.112Z,10.13
2024-01-06T11:57:39.076Z,11.33
2024-01-06T11:59:41.656Z,9.93
2024-01-06T12:01:44.057Z,10.70
2024-01-06T12:03:46.639Z,12.47
2024-01-06T12:06:04.216Z,9.57
2024-01-06T12:08:08.950Z,10.50
2024-01-06T12:10:12.643Z,13.90
2024-01-06T12:12:19.168Z,11.70
2024-01-06T12:14:21.463Z,11.00
2024-01-06T12:16:28.351Z,10.13
2024-01-06T12:18:30.987Z,11.50
2024-01-06T12:20:34.093Z,10.07
2024-01-06T12:22:36.571Z,9.33
2024-01-06T12:24:39.090Z,11.07
2024-01-06T12:26:44.414Z,12.03
2024-01-06T12:28:55.955Z,9.20
2024-01-06T12:30:58.319Z,9.97
2024-01-06T12:33:02.277Z,11.83
2024-01-06T12:35:04.972Z,8.47
2024-01-06T12:37:09.301Z,9.63
2024-01-06T12:39:17.596Z,9.20
2024-01-06T12:41:24.237Z,13.20
2024-01-06T12:43:26.469Z,11.43
2024-01-06T12:45:30.217Z,8.20
2024-01-06T12:47:33.552Z,10.77
2024-01-06T12:49:39.278Z,10.07
2024-01-06T12:51:41.909Z,10.00
2024-01-06T12:53:44.524Z,10.10
2024-01-06T12:55:46.918Z,9.13
2024-01-06T12:57:50.019Z,12.13
2024-01-06T12:59:52.361Z,13.00
2024-01-06T13:01:54.975Z,12.50
2024-01-06T13:04:00.661Z,10.23
2024-01-06T13:06:05.547Z,11.57
2024-01-06T13:08:08.290Z,12.60
2024-01-06T13:10:11.660Z,9.67
2024-01-06T13:12:19.827Z,10.23
2024-01-06T13:14:24.992Z,10.13
2024-01-06T13:16:27.912Z,10.07
2024-01-06T13:18:31.378Z,8.93
2024-01-06T13:20:33.911Z,9.97
2024-01-06T13:22:37.493Z,7.60
2024-01-06T13:24:41.790Z,12.23
2024-01-06T13:26:44.629Z,11.03
2024-01-06T13:28:47.456Z,12.07
2024-01-06T13:31:53.861Z,12.50
2024-01-06T13:33:56.998Z,9.57
2024-01-06T13:36:00.013Z,10.33
2024-01-06T13:38:03.073Z,9.20
2024-01-06T13:40:08.519Z,11.37
2024-01-06T13:42:11.113Z,10.60
2024-01-06T13:44:13.723Z,13.93
2024-01-06T13:46:15.944Z,12.43
2024-01-06T13:48:19.729Z,10.57
2024-01-06T13:50:22.071Z,9.00
2024-01-06T13:52:24.641Z,9.90
2024-01-06T13:54:26.958Z,7.27
2024-01-06T13:56:29.530Z,10.00
2024-01-06T13:58:31.802Z,9.80
2024-01-06T14:00:34.409Z,10.53
2024-01-06T14:02:36.718Z,9.13
2024-01-06T14:04:39.622Z,10.00
2024-01-06T14:06:42.130Z,12.20
2024-01-06T14:08:45.079Z,10.97
2024-01-06T14:10:47.502Z,8.97
2024-01-06T14:12:51.663Z,11.23
2024-01-06T14:15:06.950Z,12.83
2024-01-06T14:17:10.206Z,12.80
2024-01-06T14:19:18.020Z,10.43
2024-01-06T14:21:21.092Z,10.10
2024-01-06T14:23:23.749Z,10.37
2024-01-06T14:25:28.668Z,12.90
2024-01-06T14:27:31.832Z,11.73
2024-01-06T14:29:41.076Z,7.90
2024-01-06T14:31:44.198Z,13.30
2024-01-06T14:33:49.760Z,10.77
2024-01-06T14:35:54.666Z,10.37
2024-01-06T14:37:58.268Z,8.90
2024-01-06T14:40:09.420Z,12.27
2024-01-06T14:42:19.624Z,9.93
2024-01-06T14:44:25.223Z,10.10
2024-01-06T14:46:32.292Z,9.67
2024-01-06T14:48:39.384Z,11.93
2024-01-06T14:50:42.543Z,13.13
2024-01-06T14:52:44.700Z,10.20
2024-01-06T14:54:47.405Z,11.83
2024-01-06T14:56:49.678Z,10.67
2024-01-06T14:58:52.393Z,18.10
2024-01-06T15:00:57.319Z,14.07
2024-01-06T15:02:59.848Z,12.47
2024-01-06T15:05:02.385Z,8.87
2024-01-06T15:07:05.370Z,15.30
2024-01-06T15:09:07.881Z,12.83
2024-01-06T15:11:10.465Z,15.60
2024-01-06T15:13:12.729Z,13.80
2024-01-06T15:15:17.516Z,13.77
2024-01-06T15:17:24.537Z,13.70
2024-01-06T15:19:30.882Z,9.23
2024-01-06T15:21:35.286Z,11.53
2024-01-06T15:23:37.977Z,11.50
2024-01-06T15:25:40.582Z,9.93
2024-01-06T15:27:48.708Z,13.07
2024-01-06T15:29:51.116Z,11.50
2024-01-06T15:31:58.219Z,7.63
2024-01-06T15:34:11.244Z,12.67
2024-01-06T15:36:14.533Z,11.23
2024-01-06T15:38:37.691Z,8.10
2024-01-06T15:40:47.508Z,14.07
2024-01-06T15:43:06.959Z,16.07
2024-01-06T15:45:28.516Z,8.53
2024-01-06T15:47:48.658Z,9.67
2024-01-06T15:50:01.001Z,8.97
2024-01-06T15:52:11.826Z,9.87
2024-01-06T15:54:34.697Z,9.53
2024-01-06T15:56:38.763Z,7.60
2024-01-06T16:02:18.166Z,12.53
2024-01-06T16:04:39.604Z,11.10
2024-01-06T16:08:55.224Z,10.17
2024-01-06T16:10:59.835Z,8.30
2024-01-06T16:11:26.631Z,9.03
2024-01-06T16:13:04.686Z,9.03
2024-01-06T16:15:07.598Z,11.50
2024-01-06T16:17:10.208Z,10.47
2024-01-06T16:19:16.125Z,11.60
2024-01-06T16:21:44.992Z,12.00
2024-01-06T16:23:47.339Z,11.63
2024-01-06T16:25:53.034Z,15.40
2024-01-06T16:27:56.383Z,10.03
2024-01-06T16:30:01.586Z,14.33
2024-01-06T16:32:04.678Z,13.10
2024-01-06T16:34:10.383Z,9.03
2024-01-06T16:39:15.321Z,10.43
2024-01-06T16:41:46.850Z,7.37
2024-01-06T16:46:08.836Z,7.17
2024-01-06T16:50:41.018Z,7.53
2024-01-06T16:52:59.326Z,8.13
2024-01-06T16:55:10.518Z,7.57
2024-01-06T16:57:40.439Z,9.00
2024-01-06T16:59:45.143Z,6.97
2024-01-06T17:01:51.736Z,6.47
2024-01-06T17:04:24.402Z,6.17
2024-01-06T17:06:47.835Z,7.53
2024-01-06T17:08:52.219Z,6.70
2024-01-06T17:10:54.766Z,6.47
2024-01-06T17:12:57.094Z,8.20
2024-01-06T17:14:59.662Z,6.63
2024-01-06T17:17:01.885Z,6.27
2024-01-06T17:19:04.423Z,10.80
2024-01-06T17:21:20.364Z,6.23
2024-01-06T17:23:29.275Z,6.83
2024-01-06T17:25:33.069Z,9.27
2024-01-06T17:27:36.033Z,7.10
2024-01-06T17:29:38.294Z,6.23
2024-01-06T17:31:40.994Z,7.30
2024-01-06T17:33:43.960Z,7.07
2024-01-06T17:35:51.594Z,6.50
2024-01-06T17:37:58.987Z,8.63
2024-01-06T17:40:06.658Z,7.63
2024-01-06T17:42:12.056Z,9.53
2024-01-06T17:44:14.586Z,12.77
2024-01-06T17:46:16.819Z,7.80
2024-01-06T17:48:19.507Z,8.93
2024-01-06T17:50:21.852Z,7.47
2024-01-06T17:52:28.103Z,10.73
2024-01-06T17:54:30.260Z,9.97
2024-01-06T17:56:32.736Z,6.50
2024-01-06T17:58:34.944Z,9.57
2024-01-06T18:00:37.415Z,8.50
2024-01-06T18:02:39.980Z,8.47
2024-01-06T18:04:43.050Z,9.53
2024-01-06T18:06:46.688Z,10.03
2024-01-06T18:08:49.574Z,11.43
2024-01-06T18:10:55.941Z,9.47
2024-01-06T18:13:00.752Z,7.80
2024-01-06T18:15:03.658Z,7.57
2024-01-06T18:17:09.539Z,8.27
2024-01-06T18:19:12.336Z,10.10
2024-01-06T18:21:17.999Z,10.33
2024-01-06T18:23:20.233Z,8.87
2024-01-06T18:25:22.636Z,7.40
2024-01-06T18:27:25.019Z,6.97
2024-01-06T18:29:27.526Z,9.90
2024-01-06T18:31:30.113Z,7.37
2024-01-06T18:33:33.515Z,9.23
2024-01-06T18:35:35.849Z,6.40
2024-01-06T18:37:38.321Z,9.03
2024-01-06T18:40:06.110Z,7.67
2024-01-06T18:42:39.025Z,9.37
2024-01-06T18:48:32.839Z,7.82
2024-01-06T18:48:33.057Z,6.83
2024-01-06T18:50:35.378Z,7.33
2024-01-06T18:52:41.336Z,13.33
2024-01-06T18:54:44.814Z,8.23
2024-01-06T18:56:47.885Z,6.67
2024-01-06T18:58:52.686Z,9.13
2024-01-06T19:00:57.600Z,6.63
2024-01-06T19:03:01.734Z,8.50
2024-01-06T19:05:04.940Z,10.80
2024-01-06T19:07:07.276Z,5.47
2024-01-06T19:09:09.982Z,7.00
2024-01-06T19:11:12.519Z,10.10
2024-01-06T19:13:15.639Z,8.27
2024-01-06T19:15:20.144Z,6.53
2024-01-06T19:17:25.450Z,6.97
2024-01-06T19:19:29.974Z,8.53
2024-01-06T19:21:37.705Z,7.50
2024-01-06T19:23:51.739Z,5.93
2024-01-06T19:25:54.643Z,7.20
2024-01-06T19:27:56.903Z,6.63
2024-01-06T19:29:59.500Z,5.63
2024-01-06T19:32:03.171Z,8.30
2024-01-06T19:34:08.141Z,6.87
2024-01-06T19:36:16.220Z,10.57
2024-01-06T19:38:20.518Z,6.93
2024-01-06T19:40:23.495Z,7.03
2024-01-06T19:42:34.884Z,6.07
2024-01-06T19:44:37.650Z,5.80
2024-01-06T19:46:43.984Z,9.70
2024-01-06T19:48:47.013Z,9.17
2024-01-06T19:50:52.140Z,5.47
2024-01-06T19:53:04.226Z,7.50
2024-01-06T19:55:11.378Z,6.20
2024-01-06T19:57:17.311Z,7.20
2024-01-06T19:59:19.947Z,8.47
2024-01-06T20:01:22.399Z,6.70
2024-01-06T20:03:24.989Z,5.30
2024-01-06T20:05:27.230Z,6.83
2024-01-06T20:07:30.354Z,8.83
2024-01-06T20:09:36.507Z,7.30
2024-01-06T20:11:40.741Z,5.90
2024-01-06T20:13:45.977Z,9.30
2024-01-06T20:15:48.545Z,6.27
2024-01-06T20:17:52.095Z,5.17
2024-01-06T20:19:54.750Z,6.43
2024-01-06T20:21:56.998Z,5.97
2024-01-06T20:24:00.642Z,6.27
2024-01-06T20:26:06.317Z,6.73
2024-01-06T20:28:09.524Z,7.87
2024-01-06T20:30:14.624Z,8.03
2024-01-06T20:32:17.638Z,5.97
2024-01-06T20:34:53.406Z,5.47
2024-01-06T20:36:50.693Z,6.97
2024-01-06T20:38:55.957Z,6.17
2024-01-06T20:40:58.434Z,6.57
2024-01-06T20:43:00.830Z,7.90
2024-01-06T20:45:05.942Z,6.87
2024-01-06T20:47:08.314Z,3.90
2024-01-06T20:49:11.360Z,8.50
2024-01-06T20:51:16.384Z,6.60
2024-01-06T20:53:18.898Z,6.33
2024-01-06T20:55:23.740Z,6.80
2024-01-06T20:57:29.112Z,5.43
2024-01-06T20:59:32.719Z,3.67
2024-01-06T21:01:35.281Z,3.87
2024-01-06T21:03:39.989Z,5.73
2024-01-06T21:05:42.868Z,4.47
2024-01-06T21:07:45.192Z,5.23
2024-01-06T21:09:47.670Z,5.07
2024-01-06T21:11:50.063Z,5.87
2024-01-06T21:13:52.560Z,4.40
2024-01-06T21:15:54.703Z,6.47
2024-01-06T21:17:57.141Z,5.77
2024-01-06T21:19:59.421Z,5.97
2024-01-06T21:22:02.096Z,5.53
2024-01-06T21:24:07.254Z,6.30
2024-01-06T21:26:10.999Z,9.33
2024-01-06T21:28:13.500Z,7.83
2024-01-06T21:30:16.144Z,5.03
2024-01-06T21:32:18.783Z,4.63
2024-01-06T21:34:26.082Z,4.57
2024-01-06T21:36:35.479Z,4.57
2024-01-06T21:39:02.267Z,5.30
2024-01-06T21:41:15.752Z,4.77
2024-01-06T21:43:37.250Z,4.37
2024-01-06T21:45:48.509Z,5.90
2024-01-06T21:47:57.741Z,7.03
2024-01-06T21:50:03.446Z,3.85
2024-01-06T21:52:14.608Z,6.77
2024-01-06T21:54:19.843Z,3.97
2024-01-06T21:56:25.759Z,3.53
2024-01-06T21:58:37.298Z,4.23
2024-01-06T22:00:43.350Z,6.23
2024-01-06T22:02:59.139Z,4.27
2024-01-06T22:05:15.553Z,4.73
2024-01-06T22:07:21.661Z,8.07
2024-01-06T22:09:26.988Z,6.77
2024-01-06T22:11:32.807Z,4.20
2024-01-06T22:13:38.934Z,9.70
2024-01-06T22:15:47.716Z,4.37
2024-01-06T22:17:55.919Z,10.07
2024-01-06T22:20:00.735Z,3.70
2024-01-06T22:22:05.741Z,3.03
2024-01-06T22:24:10.254Z,2.63
2024-01-06T22:26:15.053Z,5.03
2024-01-06T22:28:19.018Z,3.63
2024-01-06T22:30:21.768Z,3.03
2024-01-06T22:32:26.189Z,2.67
2024-01-06T22:34:29.213Z,3.63
2024-01-06T22:36:34.227Z,3.83
2024-01-06T22:38:44.155Z,1.53
2024-01-06T22:40:55.703Z,2.40
2024-01-06T22:42:58.162Z,2.63
2024-01-06T22:45:00.629Z,2.27
2024-01-06T22:47:03.349Z,3.03
2024-01-06T22:49:05.704Z,2.43
2024-01-06T22:51:08.368Z,2.43
2024-01-06T22:53:10.562Z,2.30
2024-01-06T22:55:13.165Z,2.40
2024-01-06T22:57:15.551Z,3.63
2024-01-06T22:59:18.002Z,3.27
2024-01-06T23:01:20.317Z,2.13
2024-01-06T23:03:22.974Z,1.53
2024-01-06T23:05:25.224Z,2.10
2024-01-06T23:07:29.197Z,3.20
2024-01-06T23:09:31.589Z,2.90
2024-01-06T23:11:34.229Z,3.33
2024-01-06T23:13:36.362Z,2.83
2024-01-06T23:15:39.181Z,3.17
2024-01-06T23:17:42.639Z,2.63
2024-01-06T23:19:48.317Z,2.60
2024-01-06T23:21:53.207Z,2.90
2024-01-06T23:23:57.148Z,6.03
2024-01-06T23:26:06.428Z,3.00
2024-01-06T23:28:29.471Z,5.17
2024-01-06T23:30:33.950Z,2.77
2024-01-06T23:32:36.665Z,4.73
2024-01-06T23:34:43.140Z,4.97
2024-01-06T23:36:46.286Z,3.87
2024-01-06T23:38:50.510Z,5.00
2024-01-06T23:40:56.532Z,3.97
2024-01-06T23:43:08.403Z,2.30
2024-01-06T23:45:15.969Z,3.30
2024-01-06T23:47:26.268Z,3.43
2024-01-06T23:49:39.149Z,3.57
2024-01-06T23:51:41.516Z,5.97
2024-01-06T23:53:44.175Z,3.07
2024-01-06T23:55:46.431Z,6.87
2024-01-06T23:57:48.941Z,2.37
2024-01-06T23:59:51.213Z,4.07
